Time;durP1;ratioP1;P1;durP2;ratioP2;P2;SDS_P1;SDS_P2;PMS_P1;PMS_P2;Temp;Humidity;BMP_temperature;BMP_pressure;BME280_temperature;BME280_humidity;BME280_pressure;Samples;Min_cycle;Max_cycle;Signal;HPM_P1;HPM_P2
2020/12/16 00:00:40;;;;;;;47.23;34.73;;;;;;;;;;4993249;28;20182;-84
2020/12/16 00:03:07;;;;;;;42.50;31.93;;;;;;;;;;4994745;28;20171;-85
2020/12/16 00:05:34;;;;;;;42.03;31.97;;;;;;;;;;4994338;28;20174;-84
2020/12/16 00:08:05;;;;;;;43.53;33.53;;;;;;;;;;4994551;28;20202;-84
2020/12/16 00:10:38;;;;;;;45.07;33.13;;;;;;;;;;4994233;28;20614;-85
2020/12/16 00:13:13;;;;;;;42.80;32.07;;;;;;;;;;4994519;28;20200;-85
2020/12/16 00:15:41;;;;;;;43.20;32.00;;;;;;;;;;4992679;28;20181;-85
2020/12/16 00:18:09;;;;;;;42.93;33.87;;;;;;;;;;4992740;28;20653;-85
2020/12/16 00:20:38;;;;;;;47.27;34.03;;;;;;;;;;4992811;28;20704;-84
2020/12/16 00:23:10;;;;;;;45.87;32.07;;;;;;;;;;4994178;28;20174;-85
2020/12/16 00:25:36;;;;;;;39.10;32.50;;;;;;;;;;4994235;28;20177;-85
2020/12/16 00:28:04;;;;;;;42.73;34.53;;;;;;;;;;4993051;28;20272;-84
2020/12/16 00:30:31;;;;;;;47.63;34.20;;;;;;;;;;4994589;28;20542;-84
2020/12/16 00:32:57;;;;;;;42.77;33.03;;;;;;;;;;4994399;28;20226;-84
2020/12/16 00:35:24;;;;;;;42.23;32.73;;;;;;;;;;4992781;28;20685;-84
2020/12/16 00:37:56;;;;;;;44.93;32.03;;;;;;;;;;4992519;28;20690;-85
2020/12/16 00:40:27;;;;;;;47.20;32.93;;;;;;;;;;4993222;28;20170;-85
2020/12/16 00:42:58;;;;;;;45.73;32.77;;;;;;;;;;4993645;28;20642;-84
2020/12/16 00:45:26;;;;;;;40.97;32.13;;;;;;;;;;4993691;28;20213;-84
2020/12/16 00:47:55;;;;;;;38.23;31.97;;;;;;;;;;4992445;28;20202;-84
2020/12/16 00:50:28;;;;;;;37.13;30.50;;;;;;;;;;4992383;28;20185;-84
2020/12/16 00:53:00;;;;;;;38.43;30.43;;;;;;;;;;4992451;28;20182;-84
2020/12/16 00:55:36;;;;;;;40.47;31.07;;;;;;;;;;4992386;28;20265;-85
2020/12/16 00:58:07;;;;;;;36.13;30.63;;;;;;;;;;4993634;28;20205;-84
2020/12/16 01:00:34;;;;;;;35.80;30.10;;;;;;;;;;4993857;28;20166;-84
2020/12/16 01:03:10;;;;;;;36.63;29.43;;;;;;;;;;4993719;28;20178;-84
2020/12/16 01:05:36;;;;;;;40.03;31.80;;;;;;;;;;4993915;28;20257;-84
2020/12/16 01:08:10;;;;;;;43.33;34.37;;;;;;;;;;4992368;28;20673;-84
2020/12/16 01:10:43;;;;;;;46.97;32.27;;;;;;;;;;4993846;28;20170;-84
2020/12/16 01:13:13;;;;;;;43.80;32.80;;;;;;;;;;4992356;28;20221;-85
2020/12/16 01:15:47;;;;;;;42.93;33.20;;;;;;;;;;4993565;28;20245;-84
2020/12/16 01:18:16;;;;;;;52.77;34.93;;;;;;;;;;5084018;23;20256;-88
2020/12/16 01:20:43;;;;;;;48.43;32.87;;;;;;;;;;4992187;28;20174;-87
2020/12/16 01:23:17;;;;;;;41.00;30.57;;;;;;;;;;4993394;28;20172;-87
2020/12/16 01:25:43;;;;;;;52.60;34.17;;;;;;;;;;4993623;28;20166;-87
2020/12/16 01:28:14;;;;;;;45.10;32.67;;;;;;;;;;4997323;28;20205;-88
2020/12/16 01:30:44;;;;;;;48.33;34.77;;;;;;;;;;4997238;28;20650;-88
2020/12/16 01:33:16;;;;;;;48.90;33.97;;;;;;;;;;4995944;28;20186;-89
2020/12/16 01:35:44;;;;;;;42.67;32.53;;;;;;;;;;4995957;28;20206;-88
2020/12/16 01:38:17;;;;;;;44.80;34.00;;;;;;;;;;4995748;28;20264;-89
2020/12/16 01:40:47;;;;;;;44.07;32.70;;;;;;;;;;4996137;28;20686;-89
2020/12/16 01:43:18;;;;;;;43.40;33.13;;;;;;;;;;4995753;28;20174;-89
2020/12/16 01:45:48;;;;;;;42.97;32.77;;;;;;;;;;4995841;28;20174;-89
2020/12/16 01:48:20;;;;;;;42.20;31.07;;;;;;;;;;4995740;28;20202;-89
2020/12/16 01:50:51;;;;;;;40.57;31.07;;;;;;;;;;4996999;28;20213;-89
2020/12/16 01:53:19;;;;;;;45.20;33.90;;;;;;;;;;4995667;28;20650;-89
2020/12/16 01:55:50;;;;;;;42.07;31.30;;;;;;;;;;4996885;28;20171;-89
2020/12/16 01:58:24;;;;;;;40.33;30.77;;;;;;;;;;4995619;28;20229;-89
2020/12/16 02:00:55;;;;;;;45.40;31.97;;;;;;;;;;4995976;28;20170;-89
2020/12/16 02:03:31;;;;;;;37.80;31.40;;;;;;;;;;4995535;28;20170;-89
2020/12/16 02:06:03;;;;;;;40.77;30.33;;;;;;;;;;4995365;28;20177;-89
2020/12/16 02:08:37;;;;;;;35.77;31.87;;;;;;;;;;4995563;28;20198;-89
2020/12/16 02:11:09;;;;;;;39.60;31.23;;;;;;;;;;4995740;28;20182;-89
2020/12/16 02:13:41;;;;;;;37.30;30.17;;;;;;;;;;4995454;28;20178;-89
2020/12/16 02:16:10;;;;;;;40.83;32.57;;;;;;;;;;4996402;28;20204;-89
2020/12/16 02:18:46;;;;;;;38.07;31.50;;;;;;;;;;4994942;28;20264;-89
2020/12/16 02:21:21;;;;;;;33.30;29.80;;;;;;;;;;4995150;28;20178;-89
2020/12/16 02:23:55;;;;;;;37.97;31.20;;;;;;;;;;4995049;28;20177;-89
2020/12/16 02:26:27;;;;;;;37.87;29.43;;;;;;;;;;4994971;28;20174;-89
2020/12/16 02:28:59;;;;;;;35.43;29.60;;;;;;;;;;4994926;28;20285;-89
2020/12/16 02:31:29;;;;;;;39.10;31.03;;;;;;;;;;4996120;28;20716;-89
2020/12/16 02:33:59;;;;;;;36.07;29.00;;;;;;;;;;4995308;28;20750;-89
2020/12/16 02:36:33;;;;;;;32.47;29.07;;;;;;;;;;4995048;28;20181;-89
2020/12/16 02:39:05;;;;;;;33.87;27.37;;;;;;;;;;4994427;28;20198;-89
2020/12/16 02:41:38;;;;;;;31.07;27.77;;;;;;;;;;4994685;28;20268;-89
2020/12/16 02:44:09;;;;;;;35.33;30.40;;;;;;;;;;4994827;28;20646;-89
2020/12/16 02:46:41;;;;;;;49.00;33.57;;;;;;;;;;4994728;28;20265;-89
2020/12/16 02:49:13;;;;;;;45.97;34.67;;;;;;;;;;4996028;28;20190;-88
2020/12/16 02:51:47;;;;;;;42.37;32.30;;;;;;;;;;4994529;28;20179;-89
2020/12/16 02:54:20;;;;;;;46.30;30.97;;;;;;;;;;4995791;28;20322;-88
2020/12/16 02:56:58;;;;;;;46.40;29.77;;;;;;;;;;4994415;28;20206;-89
2020/12/16 02:59:33;;;;;;;42.33;29.83;;;;;;;;;;4994356;28;20198;-89
2020/12/16 03:01:59;;;;;;;35.60;28.03;;;;;;;;;;4994433;28;20178;-89
2020/12/16 03:04:31;;;;;;;36.80;28.70;;;;;;;;;;4995473;28;20264;-89
2020/12/16 03:07:01;;;;;;;42.27;29.53;;;;;;;;;;4994237;28;20196;-89
2020/12/16 03:09:33;;;;;;;45.33;31.40;;;;;;;;;;4994433;28;20202;-89
2020/12/16 03:12:05;;;;;;;44.80;30.53;;;;;;;;;;4994208;28;20178;-89
2020/12/16 03:14:41;;;;;;;43.17;29.03;;;;;;;;;;4993997;28;20178;-88
2020/12/16 03:17:13;;;;;;;44.60;30.37;;;;;;;;;;4995000;28;20205;-88
2020/12/16 03:19:47;;;;;;;45.47;29.90;;;;;;;;;;4994075;28;20642;-89
2020/12/16 03:22:17;;;;;;;50.47;31.37;;;;;;;;;;4995316;28;20201;-89
2020/12/16 03:24:51;;;;;;;50.73;30.03;;;;;;;;;;4994767;28;20162;-89
2020/12/16 03:27:22;;;;;;;41.37;28.93;;;;;;;;;;4993844;28;20228;-89
2020/12/16 03:29:54;;;;;;;46.27;30.30;;;;;;;;;;4993850;28;20678;-88
2020/12/16 03:32:29;;;;;;;51.80;31.27;;;;;;;;;;4994030;28;20186;-89
2020/12/16 03:35:00;;;;;;;47.80;29.40;;;;;;;;;;4993663;28;20261;-89
2020/12/16 03:37:28;;;;;;;48.77;30.63;;;;;;;;;;4994677;28;20662;-89
2020/12/16 03:40:00;;;;;;;40.30;26.87;;;;;;;;;;4994612;28;20261;-88
2020/12/16 03:42:35;;;;;;;44.00;27.60;;;;;;;;;;4993838;28;20642;-89
2020/12/16 03:45:06;;;;;;;41.27;27.70;;;;;;;;;;4995018;28;20638;-88
2020/12/16 03:47:39;;;;;;;47.87;29.27;;;;;;;;;;4993347;28;20182;-88
2020/12/16 03:50:05;;;;;;;43.90;29.60;;;;;;;;;;4994343;28;20602;-88
2020/12/16 03:52:38;;;;;;;42.80;29.43;;;;;;;;;;4993273;28;20220;-88
2020/12/16 03:55:11;;;;;;;47.90;28.17;;;;;;;;;;4993685;28;20185;-88
2020/12/16 03:57:41;;;;;;;44.40;29.10;;;;;;;;;;4993213;28;20201;-88
2020/12/16 04:00:12;;;;;;;45.10;30.33;;;;;;;;;;4993249;28;20178;-88
2020/12/16 04:02:39;;;;;;;44.50;29.37;;;;;;;;;;4994375;28;20178;-89
2020/12/16 04:05:11;;;;;;;42.07;29.70;;;;;;;;;;4993243;28;20205;-89
2020/12/16 04:07:43;;;;;;;51.13;31.37;;;;;;;;;;4994295;28;20257;-89
2020/12/16 04:10:21;;;;;;;47.10;31.07;;;;;;;;;;4993043;28;20186;-89
2020/12/16 04:12:49;;;;;;;47.17;30.30;;;;;;;;;;4994258;28;20544;-89
2020/12/16 04:15:18;;;;;;;42.07;28.57;;;;;;;;;;4994160;28;20173;-89
2020/12/16 04:17:49;;;;;;;41.73;28.30;;;;;;;;;;4994034;28;20690;-89
2020/12/16 04:20:22;;;;;;;36.70;28.53;;;;;;;;;;4993359;28;20217;-89
2020/12/16 04:22:55;;;;;;;39.60;28.33;;;;;;;;;;4994099;28;20665;-89
2020/12/16 04:25:26;;;;;;;48.23;31.07;;;;;;;;;;4994283;28;20174;-89
2020/12/16 04:27:55;;;;;;;46.50;29.40;;;;;;;;;;4994114;28;20201;-89
2020/12/16 04:30:25;;;;;;;41.07;30.97;;;;;;;;;;4992788;28;20348;-89
2020/12/16 04:32:59;;;;;;;43.20;29.93;;;;;;;;;;4992883;28;20174;-89
2020/12/16 04:35:31;;;;;;;43.37;30.77;;;;;;;;;;4992626;28;20178;-89
2020/12/16 04:38:03;;;;;;;42.17;30.23;;;;;;;;;;4993801;28;20225;-89
2020/12/16 04:40:35;;;;;;;39.20;30.83;;;;;;;;;;4992588;28;20209;-89
2020/12/16 04:43:06;;;;;;;38.73;29.87;;;;;;;;;;4992404;28;20174;-89
2020/12/16 04:45:36;;;;;;;40.67;30.53;;;;;;;;;;4994180;28;20189;-89
2020/12/16 04:48:07;;;;;;;39.33;31.83;;;;;;;;;;4992416;28;20678;-89
2020/12/16 04:50:36;;;;;;;40.27;30.57;;;;;;;;;;4992521;28;20388;-89
2020/12/16 04:53:11;;;;;;;39.13;29.90;;;;;;;;;;4992410;28;20170;-89
2020/12/16 04:55:42;;;;;;;42.43;30.87;;;;;;;;;;4992760;28;20231;-89
2020/12/16 04:58:13;;;;;;;38.03;30.77;;;;;;;;;;4992593;28;20724;-89
2020/12/16 05:00:43;;;;;;;45.47;32.87;;;;;;;;;;4994194;28;20289;-89
2020/12/16 05:03:17;;;;;;;40.17;31.77;;;;;;;;;;4996468;28;20250;-88
2020/12/16 05:05:48;;;;;;;39.33;30.97;;;;;;;;;;4996529;28;20607;-89
2020/12/16 05:08:19;;;;;;;36.70;30.73;;;;;;;;;;4996302;28;20201;-89
2020/12/16 05:10:51;;;;;;;36.57;29.87;;;;;;;;;;4997787;28;20178;-89
2020/12/16 05:13:24;;;;;;;37.07;32.20;;;;;;;;;;4997668;28;20182;-89
2020/12/16 05:15:56;;;;;;;40.07;34.00;;;;;;;;;;4997136;28;20174;-89
2020/12/16 05:18:28;;;;;;;43.17;32.37;;;;;;;;;;4997267;28;20213;-89
2020/12/16 05:21:02;;;;;;;41.67;32.27;;;;;;;;;;4996450;28;20188;-89
2020/12/16 05:23:35;;;;;;;46.93;32.93;;;;;;;;;;4996141;28;20178;-89
2020/12/16 05:26:10;;;;;;;38.33;30.73;;;;;;;;;;4996127;28;20178;-89
2020/12/16 05:28:50;;;;;;;44.87;31.73;;;;;;;;;;4995972;28;20704;-89
2020/12/16 05:31:26;;;;;;;36.17;29.77;;;;;;;;;;4996785;28;20212;-89
2020/12/16 05:33:56;;;;;;;36.00;30.53;;;;;;;;;;4997619;28;20170;-89
2020/12/16 05:36:31;;;;;;;42.90;32.50;;;;;;;;;;4996119;28;20185;-89
2020/12/16 05:39:02;;;;;;;34.40;30.47;;;;;;;;;;4996191;28;20283;-89
2020/12/16 05:41:36;;;;;;;45.77;34.33;;;;;;;;;;4997337;28;20527;-89
2020/12/16 05:44:25;;;;;;;47.37;33.53;;;;;;;;;;4995957;28;20181;-89
2020/12/16 05:46:55;;;;;;;39.63;33.57;;;;;;;;;;4995644;28;20174;-89
2020/12/16 05:49:34;;;;;;;44.73;31.17;;;;;;;;;;4995661;28;20205;-89
2020/12/16 05:52:09;;;;;;;38.33;31.07;;;;;;;;;;4995602;28;20169;-89
2020/12/16 05:54:41;;;;;;;43.43;33.00;;;;;;;;;;4995522;28;20174;-89
2020/12/16 05:57:12;;;;;;;42.07;33.60;;;;;;;;;;4996621;28;20685;-89
2020/12/16 05:59:43;;;;;;;45.60;33.93;;;;;;;;;;4995420;28;20190;-89
2020/12/16 06:02:14;;;;;;;42.93;33.10;;;;;;;;;;4995473;28;20290;-89
2020/12/16 06:04:45;;;;;;;38.47;31.53;;;;;;;;;;4996714;28;20166;-89
2020/12/16 06:07:17;;;;;;;36.90;32.37;;;;;;;;;;4996544;28;20753;-89
2020/12/16 06:09:51;;;;;;;48.67;37.27;;;;;;;;;;4995316;28;20198;-89
2020/12/16 06:12:23;;;;;;;48.27;36.23;;;;;;;;;;4996007;28;20525;-88
2020/12/16 06:15:02;;;;;;;51.77;37.73;;;;;;;;;;4996403;28;20181;-89
2020/12/16 06:17:38;;;;;;;51.10;37.33;;;;;;;;;;4996570;28;20190;-89
2020/12/16 06:20:14;;;;;;;52.40;38.50;;;;;;;;;;4995062;28;20269;-89
2020/12/16 06:22:48;;;;;;;53.73;39.33;;;;;;;;;;4994954;28;20181;-88
2020/12/16 06:25:21;;;;;;;50.00;36.70;;;;;;;;;;4994979;28;20174;-88
2020/12/16 06:27:47;;;;;;;51.60;40.07;;;;;;;;;;4996272;28;20194;-89
2020/12/16 06:30:24;;;;;;;57.03;40.60;;;;;;;;;;4996290;28;20552;-89
2020/12/16 06:32:59;;;;;;;51.73;39.40;;;;;;;;;;4994964;28;20180;-89
2020/12/16 06:35:28;;;;;;;60.77;40.13;;;;;;;;;;4995342;28;20581;-89
2020/12/16 06:38:13;;;;;;;51.80;38.83;;;;;;;;;;4994684;28;20309;-89
2020/12/16 06:40:48;;;;;;;55.13;40.90;;;;;;;;;;4994994;28;20170;-89
2020/12/16 06:43:38;;;;;;;58.93;41.17;;;;;;;;;;4994589;28;20265;-89
2020/12/16 06:46:26;;;;;;;61.23;40.67;;;;;;;;;;4994624;28;20206;-89
2020/12/16 06:48:57;;;;;;;56.90;40.10;;;;;;;;;;4994791;28;20205;-88
2020/12/16 06:51:31;;;;;;;60.33;39.87;;;;;;;;;;4994492;28;20556;-89
2020/12/16 06:54:10;;;;;;;57.93;38.97;;;;;;;;;;4994519;28;20599;-89
2020/12/16 06:56:37;;;;;;;62.70;39.90;;;;;;;;;;4994385;28;20182;-89
2020/12/16 06:59:07;;;;;;;59.77;39.37;;;;;;;;;;4994265;28;20194;-89
2020/12/16 07:01:33;;;;;;;58.37;38.50;;;;;;;;;;4994428;28;20253;-89
2020/12/16 07:04:05;;;;;;;58.43;38.50;;;;;;;;;;4995891;28;20170;-89
2020/12/16 07:06:32;;;;;;;52.97;37.27;;;;;;;;;;4995431;28;20539;-89
2020/12/16 07:09:17;;;;;;;60.77;40.30;;;;;;;;;;4995405;28;20193;-89
2020/12/16 07:11:51;;;;;;;58.70;40.07;;;;;;;;;;4994250;28;20650;-89
2020/12/16 07:14:18;;;;;;;65.47;41.23;;;;;;;;;;4994172;28;20182;-89
2020/12/16 07:16:50;;;;;;;66.23;38.87;;;;;;;;;;4993932;28;20229;-89
2020/12/16 07:19:40;;;;;;;63.47;38.67;;;;;;;;;;4995125;28;20214;-89
2020/12/16 07:22:25;;;;;;;67.83;39.93;;;;;;;;;;4995707;28;20210;-89
2020/12/16 07:24:52;;;;;;;63.57;39.47;;;;;;;;;;4993526;28;20181;-89
2020/12/16 07:27:24;;;;;;;59.90;39.83;;;;;;;;;;4994984;28;20229;-89
2020/12/16 07:29:56;;;;;;;63.40;38.10;;;;;;;;;;4993774;28;20201;-89
2020/12/16 07:32:28;;;;;;;61.47;37.97;;;;;;;;;;4994999;28;20646;-89
2020/12/16 07:35:02;;;;;;;61.00;36.47;;;;;;;;;;4993733;28;20657;-88
2020/12/16 07:37:31;;;;;;;59.03;37.80;;;;;;;;;;4994782;28;20312;-89
2020/12/16 07:40:10;;;;;;;51.97;35.67;;;;;;;;;;4995024;28;20664;-89
2020/12/16 07:42:41;;;;;;;53.13;36.67;;;;;;;;;;4993976;28;20178;-89
2020/12/16 07:45:13;;;;;;;52.13;36.50;;;;;;;;;;4993507;28;20186;-89
2020/12/16 07:47:43;;;;;;;53.70;38.57;;;;;;;;;;4993887;28;20635;-89
2020/12/16 07:50:13;;;;;;;55.17;38.40;;;;;;;;;;4994947;28;20665;-89
2020/12/16 07:52:42;;;;;;;57.47;38.63;;;;;;;;;;4993383;28;20582;-89
2020/12/16 07:55:08;;;;;;;59.90;39.77;;;;;;;;;;4993453;28;20189;-89
2020/12/16 07:57:41;;;;;;;54.57;38.97;;;;;;;;;;4993106;28;20658;-90
2020/12/16 08:00:16;;;;;;;56.60;39.57;;;;;;;;;;4993655;28;20181;-88
2020/12/16 08:02:54;;;;;;;54.23;38.27;;;;;;;;;;4994958;28;20536;-88
2020/12/16 08:05:26;;;;;;;57.13;39.40;;;;;;;;;;4993938;28;20185;-88
2020/12/16 08:07:56;;;;;;;52.50;37.93;;;;;;;;;;4994348;28;20228;-89
2020/12/16 08:10:26;;;;;;;52.90;39.73;;;;;;;;;;4993058;28;20186;-89
2020/12/16 08:12:54;;;;;;;52.77;38.60;;;;;;;;;;4993321;28;20646;-89
2020/12/16 08:15:21;;;;;;;51.07;36.23;;;;;;;;;;4994316;28;20174;-89
2020/12/16 08:17:51;;;;;;;49.03;37.47;;;;;;;;;;4992807;28;20252;-89
2020/12/16 08:20:29;;;;;;;45.20;36.50;;;;;;;;;;4992983;28;20269;-89
2020/12/16 08:22:57;;;;;;;53.27;36.83;;;;;;;;;;4992856;28;20174;-89
2020/12/16 08:25:25;;;;;;;59.23;39.67;;;;;;;;;;4994130;28;20197;-89
2020/12/16 08:28:04;;;;;;;57.50;38.50;;;;;;;;;;4992744;28;20194;-90
2020/12/16 08:30:39;;;;;;;52.67;37.27;;;;;;;;;;4992775;28;20182;-89
2020/12/16 08:33:16;;;;;;;53.17;38.10;;;;;;;;;;4992748;28;20186;-89
2020/12/16 08:36:04;;;;;;;54.93;38.30;;;;;;;;;;4992445;28;20268;-90
2020/12/16 08:38:36;;;;;;;55.60;37.87;;;;;;;;;;4992797;28;20213;-89
2020/12/16 08:41:09;;;;;;;52.70;37.63;;;;;;;;;;4993784;28;20212;-91
2020/12/16 08:43:46;;;;;;;55.10;37.63;;;;;;;;;;4992628;28;20180;-89
2020/12/16 08:46:19;;;;;;;66.30;37.83;;;;;;;;;;4993455;28;20193;-90
2020/12/16 08:48:54;;;;;;;55.30;39.17;;;;;;;;;;4992804;28;20197;-90
2020/12/16 08:51:35;;;;;;;60.50;40.30;;;;;;;;;;4993767;28;20187;-90
2020/12/16 08:54:05;;;;;;;62.13;39.57;;;;;;;;;;4992491;28;20231;-89
2020/12/16 08:56:38;;;;;;;63.37;41.93;;;;;;;;;;4992796;28;20181;-89
2020/12/16 08:59:16;;;;;;;63.83;40.43;;;;;;;;;;4992393;28;20201;-90
2020/12/16 09:01:58;;;;;;;61.37;41.40;;;;;;;;;;4993553;28;20182;-91
2020/12/16 09:04:30;;;;;;;59.80;38.93;;;;;;;;;;4992765;28;20261;-91
2020/12/16 09:07:00;;;;;;;65.90;40.03;;;;;;;;;;4992830;28;20571;-90
2020/12/16 09:09:30;;;;;;;73.07;41.50;;;;;;;;;;4992256;28;20231;-91
2020/12/16 09:12:02;;;;;;;78.43;41.47;;;;;;;;;;4992986;28;20200;-90
2020/12/16 09:14:34;;;;;;;62.33;37.17;;;;;;;;;;4993366;28;20181;-90
2020/12/16 09:17:06;;;;;;;65.70;39.23;;;;;;;;;;4992739;28;20238;-89
2020/12/16 09:19:34;;;;;;;68.33;37.63;;;;;;;;;;4992151;28;20709;-89
2020/12/16 09:22:01;;;;;;;59.57;36.27;;;;;;;;;;4992207;28;20711;-89
2020/12/16 09:24:27;;;;;;;61.90;36.63;;;;;;;;;;4992335;28;20174;-88
2020/12/16 09:27:08;;;;;;;60.63;34.67;;;;;;;;;;4993733;28;20260;-89
2020/12/16 09:29:46;;;;;;;52.27;30.70;;;;;;;;;;4992501;28;20869;-88
2020/12/16 09:32:21;;;;;;;59.23;34.73;;;;;;;;;;4992490;28;20211;-89
2020/12/16 09:34:51;;;;;;;54.30;33.23;;;;;;;;;;4992875;28;20227;-89
2020/12/16 09:37:25;;;;;;;59.97;34.67;;;;;;;;;;4992056;28;20198;-89
2020/12/16 09:40:02;;;;;;;59.37;33.37;;;;;;;;;;4992205;28;20169;-90
2020/12/16 09:42:32;;;;;;;64.73;33.67;;;;;;;;;;4992194;28;20180;-88
2020/12/16 09:45:21;;;;;;;55.67;34.63;;;;;;;;;;4992077;28;20170;-89
2020/12/16 09:47:54;;;;;;;54.17;32.93;;;;;;;;;;4994102;28;20225;-89
2020/12/16 09:50:31;;;;;;;54.43;33.70;;;;;;;;;;4996344;28;20178;-88
2020/12/16 09:53:04;;;;;;;60.33;33.13;;;;;;;;;;4995608;28;20320;-89
2020/12/16 09:55:39;;;;;;;52.43;33.50;;;;;;;;;;4995873;28;20182;-89
2020/12/16 09:58:10;;;;;;;51.60;34.93;;;;;;;;;;4995347;28;20328;-89
2020/12/16 10:00:41;;;;;;;47.80;31.63;;;;;;;;;;4997086;28;20182;-88
2020/12/16 10:03:08;;;;;;;47.60;32.03;;;;;;;;;;4996766;28;20201;-88
2020/12/16 10:05:41;;;;;;;46.50;30.43;;;;;;;;;;4995430;28;20170;-88
2020/12/16 10:08:14;;;;;;;57.00;31.13;;;;;;;;;;4995327;28;20244;-87
2020/12/16 10:10:43;;;;;;;54.70;29.63;;;;;;;;;;4996607;28;20259;-88
2020/12/16 10:13:14;;;;;;;51.53;32.17;;;;;;;;;;4995137;28;20214;-88
2020/12/16 10:15:47;;;;;;;49.30;31.53;;;;;;;;;;4995713;28;20239;-88
2020/12/16 10:18:18;;;;;;;60.63;31.47;;;;;;;;;;4995858;28;20225;-88
2020/12/16 10:20:49;;;;;;;60.77;29.63;;;;;;;;;;4997766;28;20205;-88
2020/12/16 10:23:21;;;;;;;53.47;30.90;;;;;;;;;;4995669;28;20521;-88
2020/12/16 10:25:53;;;;;;;56.23;29.93;;;;;;;;;;4995622;28;20178;-88
2020/12/16 10:28:24;;;;;;;51.13;29.47;;;;;;;;;;4995829;28;20204;-88
2020/12/16 10:30:56;;;;;;;63.00;33.07;;;;;;;;;;4995631;28;20649;-88
2020/12/16 10:33:27;;;;;;;54.43;29.30;;;;;;;;;;4995445;28;20721;-88
2020/12/16 10:35:59;;;;;;;58.50;30.97;;;;;;;;;;4995641;28;20561;-88
2020/12/16 10:38:31;;;;;;;56.17;29.93;;;;;;;;;;4995689;28;20232;-88
2020/12/16 10:41:02;;;;;;;63.30;32.43;;;;;;;;;;4995430;28;20177;-88
2020/12/16 10:43:34;;;;;;;53.83;30.03;;;;;;;;;;4995109;28;20178;-88
2020/12/16 10:46:06;;;;;;;67.27;33.33;;;;;;;;;;4996821;28;20174;-88
2020/12/16 10:48:37;;;;;;;61.37;30.97;;;;;;;;;;4997093;28;20287;-88
2020/12/16 10:51:11;;;;;;;68.90;29.93;;;;;;;;;;4995522;28;20587;-89
2020/12/16 10:53:43;;;;;;;68.87;32.30;;;;;;;;;;4995726;28;20223;-88
2020/12/16 10:56:16;;;;;;;76.60;35.53;;;;;;;;;;4996607;28;20188;-89
2020/12/16 10:58:48;;;;;;;72.13;33.40;;;;;;;;;;4994563;28;20688;-88
2020/12/16 11:01:21;;;;;;;70.10;31.80;;;;;;;;;;4995230;28;20177;-88
2020/12/16 11:03:55;;;;;;;77.53;34.10;;;;;;;;;;4994780;28;20209;-88
2020/12/16 11:06:31;;;;;;;71.33;33.53;;;;;;;;;;4995014;28;20185;-88
2020/12/16 11:09:01;;;;;;;77.40;35.07;;;;;;;;;;4995189;28;20204;-88
2020/12/16 11:11:31;;;;;;;83.13;36.57;;;;;;;;;;4994988;28;20220;-88
2020/12/16 11:14:05;;;;;;;84.37;37.03;;;;;;;;;;4994803;28;20185;-88
2020/12/16 11:16:33;;;;;;;75.43;34.23;;;;;;;;;;4994827;28;20189;-88
2020/12/16 11:19:08;;;;;;;90.93;37.57;;;;;;;;;;4994410;28;20226;-88
2020/12/16 11:21:44;;;;;;;100.60;40.20;;;;;;;;;;4994549;28;20177;-87
2020/12/16 11:24:11;;;;;;;93.80;37.47;;;;;;;;;;4996344;28;20174;-88
2020/12/16 11:26:47;;;;;;;93.57;38.07;;;;;;;;;;4994613;28;20177;-88
2020/12/16 11:29:21;;;;;;;96.77;38.77;;;;;;;;;;4995747;28;20197;-88
2020/12/16 11:31:51;;;;;;;103.37;39.17;;;;;;;;;;4995358;28;20174;-88
2020/12/16 11:34:26;;;;;;;97.03;38.80;;;;;;;;;;4994982;28;20170;-88
2020/12/16 11:37:00;;;;;;;88.37;39.23;;;;;;;;;;4994669;28;20255;-88
2020/12/16 11:39:35;;;;;;;93.00;35.37;;;;;;;;;;4994898;28;20193;-87
2020/12/16 11:42:03;;;;;;;93.67;36.87;;;;;;;;;;4994889;28;20614;-88
2020/12/16 11:44:36;;;;;;;96.70;38.93;;;;;;;;;;4994563;28;20224;-88
2020/12/16 11:47:06;;;;;;;94.80;40.23;;;;;;;;;;4994376;28;20709;-88
2020/12/16 11:49:32;;;;;;;89.23;39.30;;;;;;;;;;4994617;28;20193;-88
2020/12/16 11:51:59;;;;;;;96.87;41.83;;;;;;;;;;4993284;28;20649;-88
2020/12/16 11:54:26;;;;;;;90.03;39.67;;;;;;;;;;4993760;28;20201;-87
2020/12/16 11:56:53;;;;;;;86.93;40.43;;;;;;;;;;4993893;28;20185;-88
2020/12/16 11:59:23;;;;;;;95.00;41.00;;;;;;;;;;4994883;28;20186;-88
2020/12/16 12:01:53;;;;;;;96.17;41.73;;;;;;;;;;4995376;28;20174;-88
2020/12/16 12:04:19;;;;;;;92.80;41.67;;;;;;;;;;4994010;28;20178;-88
2020/12/16 12:06:48;;;;;;;89.27;41.77;;;;;;;;;;4993616;28;20173;-88
2020/12/16 12:09:16;;;;;;;85.47;41.13;;;;;;;;;;4993766;28;20209;-88
2020/12/16 12:11:45;;;;;;;84.43;40.90;;;;;;;;;;4993470;28;20268;-88
2020/12/16 12:14:14;;;;;;;83.57;41.93;;;;;;;;;;4993462;28;20262;-88
2020/12/16 12:16:43;;;;;;;77.83;41.83;;;;;;;;;;4994506;28;20186;-88
2020/12/16 12:19:09;;;;;;;79.90;43.33;;;;;;;;;;4993180;28;20217;-88
2020/12/16 12:21:35;;;;;;;72.80;39.53;;;;;;;;;;4994843;28;20181;-88
2020/12/16 12:24:02;;;;;;;68.10;41.23;;;;;;;;;;4993568;28;20177;-88
2020/12/16 12:26:30;;;;;;;69.07;41.23;;;;;;;;;;4993961;28;20272;-88
2020/12/16 12:28:59;;;;;;;70.60;40.13;;;;;;;;;;4994979;28;20193;-88
2020/12/16 12:31:27;;;;;;;70.00;41.57;;;;;;;;;;4993636;28;20193;-88
2020/12/16 12:33:53;;;;;;;62.47;38.83;;;;;;;;;;4993422;28;20193;-88
2020/12/16 12:36:26;;;;;;;64.10;39.73;;;;;;;;;;4994110;28;20620;-88
2020/12/16 12:38:58;;;;;;;64.43;39.63;;;;;;;;;;4993235;28;20682;-88
2020/12/16 12:41:27;;;;;;;68.57;41.20;;;;;;;;;;4994683;28;20189;-88
2020/12/16 12:43:54;;;;;;;63.43;39.13;;;;;;;;;;4994406;28;20547;-88
2020/12/16 12:46:20;;;;;;;58.00;38.50;;;;;;;;;;4993586;28;20178;-88
2020/12/16 12:48:52;;;;;;;63.73;40.37;;;;;;;;;;4993596;28;20198;-88
2020/12/16 12:51:23;;;;;;;70.83;41.30;;;;;;;;;;4993399;28;20667;-89
2020/12/16 12:53:53;;;;;;;64.90;38.50;;;;;;;;;;4994030;28;20186;-89
2020/12/16 12:56:21;;;;;;;57.17;40.27;;;;;;;;;;4994285;28;20208;-88
2020/12/16 12:58:53;;;;;;;65.67;40.30;;;;;;;;;;4994866;28;20214;-89
2020/12/16 13:01:25;;;;;;;59.50;40.33;;;;;;;;;;4994153;28;20178;-89
2020/12/16 13:03:55;;;;;;;57.90;40.40;;;;;;;;;;4994228;28;20178;-89
2020/12/16 13:06:26;;;;;;;58.37;39.30;;;;;;;;;;4998781;28;20186;-88
2020/12/16 13:08:57;;;;;;;52.27;37.27;;;;;;;;;;4994736;28;20202;-88
2020/12/16 13:11:24;;;;;;;44.27;35.40;;;;;;;;;;4996301;28;20174;-89
2020/12/16 13:13:52;;;;;;;49.73;38.73;;;;;;;;;;4994784;28;20205;-89
2020/12/16 13:16:21;;;;;;;48.80;37.20;;;;;;;;;;4994852;28;20181;-89
2020/12/16 13:18:47;;;;;;;49.53;37.97;;;;;;;;;;4995805;28;20245;-89
2020/12/16 13:21:19;;;;;;;57.50;39.50;;;;;;;;;;4994084;28;20174;-89
2020/12/16 13:23:51;;;;;;;50.77;38.87;;;;;;;;;;4996065;28;20556;-89
2020/12/16 13:26:25;;;;;;;45.97;37.20;;;;;;;;;;4997010;28;20181;-89
2020/12/16 13:28:52;;;;;;;44.77;36.53;;;;;;;;;;4996660;28;20682;-89
2020/12/16 13:31:24;;;;;;;43.70;34.83;;;;;;;;;;4997060;28;20208;-89
2020/12/16 13:33:54;;;;;;;45.47;33.83;;;;;;;;;;4996801;28;20264;-89
2020/12/16 13:36:26;;;;;;;45.27;35.77;;;;;;;;;;4998197;28;20174;-89
2020/12/16 13:38:53;;;;;;;45.33;35.87;;;;;;;;;;4996589;28;20213;-89
2020/12/16 13:41:24;;;;;;;41.03;34.43;;;;;;;;;;4996398;28;20185;-89
2020/12/16 13:43:56;;;;;;;43.63;34.63;;;;;;;;;;4996157;28;20189;-89
2020/12/16 13:46:30;;;;;;;42.60;35.43;;;;;;;;;;4996314;28;20666;-89
2020/12/16 13:48:58;;;;;;;50.50;36.63;;;;;;;;;;4996164;28;20293;-88
2020/12/16 13:51:29;;;;;;;49.53;38.23;;;;;;;;;;4996656;28;20216;-89
2020/12/16 13:54:03;;;;;;;54.63;39.67;;;;;;;;;;4997258;28;20189;-89
2020/12/16 13:56:35;;;;;;;47.63;37.27;;;;;;;;;;4996404;28;20178;-88
2020/12/16 13:59:05;;;;;;;48.57;38.20;;;;;;;;;;4995910;28;20263;-88
2020/12/16 14:01:38;;;;;;;50.97;38.63;;;;;;;;;;4995777;28;20182;-88
2020/12/16 14:04:10;;;;;;;53.27;39.00;;;;;;;;;;4995877;28;20265;-89
2020/12/16 14:06:40;;;;;;;49.07;39.80;;;;;;;;;;4996142;28;20204;-89
2020/12/16 14:09:12;;;;;;;48.73;38.40;;;;;;;;;;4995666;28;20562;-89
2020/12/16 14:11:41;;;;;;;49.00;39.03;;;;;;;;;;4996837;28;20193;-89
2020/12/16 14:14:14;;;;;;;46.87;38.53;;;;;;;;;;4996979;28;20193;-89
2020/12/16 14:16:46;;;;;;;47.57;38.97;;;;;;;;;;4997387;28;20264;-89
2020/12/16 14:19:15;;;;;;;48.97;38.83;;;;;;;;;;4996401;28;20217;-89
2020/12/16 14:21:43;;;;;;;47.63;37.57;;;;;;;;;;4996040;28;20646;-89
2020/12/16 14:24:12;;;;;;;46.87;38.00;;;;;;;;;;4995711;28;20178;-89
2020/12/16 14:26:41;;;;;;;45.57;36.37;;;;;;;;;;4995477;28;20182;-89
2020/12/16 14:29:14;;;;;;;47.23;37.53;;;;;;;;;;4995817;28;20292;-89
2020/12/16 14:31:49;;;;;;;45.53;36.17;;;;;;;;;;4996707;28;20189;-89
2020/12/16 14:34:18;;;;;;;47.13;36.83;;;;;;;;;;4997391;28;20174;-89
2020/12/16 14:36:58;;;;;;;46.67;35.80;;;;;;;;;;4995350;28;20201;-89
2020/12/16 14:39:31;;;;;;;46.17;36.63;;;;;;;;;;4995259;28;20206;-88
2020/12/16 14:42:04;;;;;;;49.63;35.93;;;;;;;;;;4995189;28;20550;-88